sensor_id;sensor_type;location;lat;lon;timestamp;P1;durP1;ratioP1;P2;durP2;ratioP2
49147;SDS011;41980;45.550;12.070;2022-08-14T00:00:32;1.02;;;0.52;;
49147;SDS011;41980;45.550;12.070;2022-08-14T00:06:34;2.25;;;1.00;;
49147;SDS011;41980;45.550;12.070;2022-08-14T00:12:37;2.13;;;1.10;;
49147;SDS011;41980;45.550;12.070;2022-08-14T00:18:41;2.22;;;1.00;;
49147;SDS011;41980;45.550;12.070;2022-08-14T00:24:44;2.25;;;0.93;;
49147;SDS011;41980;45.550;12.070;2022-08-14T00:30:46;2.08;;;1.00;;
49147;SDS011;41980;45.550;12.070;2022-08-14T00:36:48;3.53;;;1.02;;
49147;SDS011;41980;45.550;12.070;2022-08-14T00:42:50;1.88;;;1.10;;
49147;SDS011;41980;45.550;12.070;2022-08-14T00:48:52;1.90;;;1.00;;
49147;SDS011;41980;45.550;12.070;2022-08-14T00:54:54;2.10;;;1.08;;
49147;SDS011;41980;45.550;12.070;2022-08-14T01:00:58;2.50;;;1.08;;
49147;SDS011;41980;45.550;12.070;2022-08-14T01:07:02;1.77;;;0.90;;
49147;SDS011;41980;45.550;12.070;2022-08-14T01:13:04;2.45;;;1.20;;
49147;SDS011;41980;45.550;12.070;2022-08-14T01:19:06;1.73;;;1.00;;
49147;SDS011;41980;45.550;12.070;2022-08-14T01:25:11;1.90;;;1.05;;
49147;SDS011;41980;45.550;12.070;2022-08-14T01:31:15;1.65;;;0.95;;
49147;SDS011;41980;45.550;12.070;2022-08-14T01:37:18;1.70;;;0.88;;
49147;SDS011;41980;45.550;12.070;2022-08-14T01:43:25;2.65;;;1.10;;
49147;SDS011;41980;45.550;12.070;2022-08-14T01:49:31;3.35;;;1.23;;
49147;SDS011;41980;45.550;12.070;2022-08-14T01:55:33;2.22;;;1.17;;
49147;SDS011;41980;45.550;12.070;2022-08-14T02:01:35;1.83;;;1.08;;
49147;SDS011;41980;45.550;12.070;2022-08-14T02:07:39;2.05;;;1.15;;
49147;SDS011;41980;45.550;12.070;2022-08-14T02:13:45;2.33;;;1.17;;
49147;SDS011;41980;45.550;12.070;2022-08-14T02:19:51;2.15;;;1.30;;
49147;SDS011;41980;45.550;12.070;2022-08-14T02:25:53;2.28;;;1.30;;
49147;SDS011;41980;45.550;12.070;2022-08-14T02:31:56;2.88;;;1.23;;
49147;SDS011;41980;45.550;12.070;2022-08-14T02:38:00;2.00;;;1.30;;
49147;SDS011;41980;45.550;12.070;2022-08-14T02:44:04;2.28;;;1.10;;
49147;SDS011;41980;45.550;12.070;2022-08-14T02:50:07;2.55;;;1.48;;
49147;SDS011;41980;45.550;12.070;2022-08-14T02:56:10;3.42;;;1.42;;
49147;SDS011;41980;45.550;12.070;2022-08-14T03:02:17;2.13;;;1.27;;
49147;SDS011;41980;45.550;12.070;2022-08-14T03:08:19;2.92;;;1.40;;
49147;SDS011;41980;45.550;12.070;2022-08-14T03:14:22;1.98;;;1.17;;
49147;SDS011;41980;45.550;12.070;2022-08-14T03:20:26;2.47;;;1.10;;
49147;SDS011;41980;45.550;12.070;2022-08-14T03:26:30;2.75;;;1.20;;
49147;SDS011;41980;45.550;12.070;2022-08-14T03:32:32;2.50;;;1.30;;
49147;SDS011;41980;45.550;12.070;2022-08-14T03:38:34;2.30;;;1.27;;
49147;SDS011;41980;45.550;12.070;2022-08-14T03:44:43;3.05;;;1.50;;
49147;SDS011;41980;45.550;12.070;2022-08-14T03:50:46;3.67;;;1.80;;
49147;SDS011;41980;45.550;12.070;2022-08-14T03:56:52;3.45;;;1.58;;
49147;SDS011;41980;45.550;12.070;2022-08-14T04:02:54;2.08;;;1.42;;
49147;SDS011;41980;45.550;12.070;2022-08-14T04:08:56;2.40;;;1.25;;
49147;SDS011;41980;45.550;12.070;2022-08-14T04:14:59;2.97;;;1.80;;
49147;SDS011;41980;45.550;12.070;2022-08-14T04:21:01;1.90;;;1.20;;
49147;SDS011;41980;45.550;12.070;2022-08-14T04:27:03;2.13;;;1.20;;
49147;SDS011;41980;45.550;12.070;2022-08-14T04:33:09;2.13;;;1.25;;
49147;SDS011;41980;45.550;12.070;2022-08-14T04:39:11;1.95;;;1.33;;
49147;SDS011;41980;45.550;12.070;2022-08-14T04:45:17;2.05;;;1.30;;
49147;SDS011;41980;45.550;12.070;2022-08-14T04:51:21;2.15;;;1.33;;
49147;SDS011;41980;45.550;12.070;2022-08-14T04:57:27;2.15;;;1.25;;
49147;SDS011;41980;45.550;12.070;2022-08-14T05:03:31;1.90;;;1.20;;
49147;SDS011;41980;45.550;12.070;2022-08-14T05:09:36;1.80;;;1.17;;
49147;SDS011;41980;45.550;12.070;2022-08-14T05:15:39;2.10;;;1.10;;
49147;SDS011;41980;45.550;12.070;2022-08-14T05:21:42;1.98;;;1.13;;
49147;SDS011;41980;45.550;12.070;2022-08-14T05:27:44;1.88;;;1.00;;
49147;SDS011;41980;45.550;12.070;2022-08-14T05:33:46;2.00;;;1.13;;
49147;SDS011;41980;45.550;12.070;2022-08-14T05:39:50;2.50;;;1.20;;
49147;SDS011;41980;45.550;12.070;2022-08-14T05:45:52;2.00;;;1.10;;
49147;SDS011;41980;45.550;12.070;2022-08-14T05:51:54;4.38;;;1.55;;
49147;SDS011;41980;45.550;12.070;2022-08-14T05:57:58;3.05;;;1.20;;
49147;SDS011;41980;45.550;12.070;2022-08-14T06:04:01;1.73;;;0.80;;
49147;SDS011;41980;45.550;12.070;2022-08-14T06:10:04;1.50;;;0.80;;
49147;SDS011;41980;45.550;12.070;2022-08-14T06:16:08;1.70;;;0.80;;
49147;SDS011;41980;45.550;12.070;2022-08-14T06:22:11;1.60;;;0.68;;
49147;SDS011;41980;45.550;12.070;2022-08-14T06:34:18;1.70;;;0.88;;
49147;SDS011;41980;45.550;12.070;2022-08-14T06:40:22;3.35;;;0.90;;
49147;SDS011;41980;45.550;12.070;2022-08-14T06:46:28;1.90;;;1.08;;
49147;SDS011;41980;45.550;12.070;2022-08-14T06:52:31;2.20;;;1.00;;
49147;SDS011;41980;45.550;12.070;2022-08-14T06:58:33;1.90;;;0.88;;
49147;SDS011;41980;45.550;12.070;2022-08-14T07:04:35;1.83;;;0.80;;
49147;SDS011;41980;45.550;12.070;2022-08-14T07:10:40;1.88;;;0.88;;
49147;SDS011;41980;45.550;12.070;2022-08-14T07:16:44;1.90;;;0.80;;
49147;SDS011;41980;45.550;12.070;2022-08-14T07:22:46;1.40;;;0.80;;
49147;SDS011;41980;45.550;12.070;2022-08-14T07:28:48;4.53;;;1.70;;
49147;SDS011;41980;45.550;12.070;2022-08-14T07:34:51;1.40;;;0.95;;
49147;SDS011;41980;45.550;12.070;2022-08-14T07:40:53;2.25;;;0.90;;
49147;SDS011;41980;45.550;12.070;2022-08-14T07:46:55;3.08;;;1.00;;
49147;SDS011;41980;45.550;12.070;2022-08-14T07:52:56;1.70;;;0.73;;
49147;SDS011;41980;45.550;12.070;2022-08-14T07:58:59;1.95;;;0.80;;
49147;SDS011;41980;45.550;12.070;2022-08-14T08:05:02;1.52;;;0.70;;
49147;SDS011;41980;45.550;12.070;2022-08-14T08:11:04;2.78;;;0.80;;
49147;SDS011;41980;45.550;12.070;2022-08-14T08:17:07;2.33;;;0.90;;
49147;SDS011;41980;45.550;12.070;2022-08-14T08:23:10;1.30;;;0.70;;
49147;SDS011;41980;45.550;12.070;2022-08-14T08:29:17;1.20;;;0.65;;
49147;SDS011;41980;45.550;12.070;2022-08-14T08:35:21;1.42;;;0.50;;
49147;SDS011;41980;45.550;12.070;2022-08-14T08:41:26;1.40;;;0.65;;
49147;SDS011;41980;45.550;12.070;2022-08-14T08:47:40;4.05;;;0.93;;
49147;SDS011;41980;45.550;12.070;2022-08-14T08:53:43;3.45;;;0.88;;
49147;SDS011;41980;45.550;12.070;2022-08-14T08:59:45;2.17;;;0.70;;
49147;SDS011;41980;45.550;12.070;2022-08-14T09:05:48;1.95;;;0.70;;
49147;SDS011;41980;45.550;12.070;2022-08-14T09:11:52;1.95;;;0.80;;
49147;SDS011;41980;45.550;12.070;2022-08-14T09:17:56;4.18;;;1.30;;
49147;SDS011;41980;45.550;12.070;2022-08-14T09:23:59;1.80;;;1.10;;
49147;SDS011;41980;45.550;12.070;2022-08-14T09:30:03;1.92;;;0.98;;
49147;SDS011;41980;45.550;12.070;2022-08-14T09:48:21;1.48;;;0.80;;
49147;SDS011;41980;45.550;12.070;2022-08-14T09:54:24;5.22;;;1.08;;
49147;SDS011;41980;45.550;12.070;2022-08-14T10:06:45;1.33;;;0.60;;
49147;SDS011;41980;45.550;12.070;2022-08-14T10:12:47;1.50;;;0.75;;
49147;SDS011;41980;45.550;12.070;2022-08-14T10:25:08;2.00;;;0.60;;
49147;SDS011;41980;45.550;12.070;2022-08-14T10:31:15;1.52;;;0.88;;
49147;SDS011;41980;45.550;12.070;2022-08-14T10:37:21;2.38;;;0.77;;
49147;SDS011;41980;45.550;12.070;2022-08-14T10:43:23;2.92;;;1.30;;
49147;SDS011;41980;45.550;12.070;2022-08-14T10:49:26;3.70;;;1.10;;
49147;SDS011;41980;45.550;12.070;2022-08-14T10:55:30;1.52;;;0.70;;
49147;SDS011;41980;45.550;12.070;2022-08-14T11:01:39;1.60;;;0.73;;
49147;SDS011;41980;45.550;12.070;2022-08-14T11:07:55;2.00;;;0.95;;
49147;SDS011;41980;45.550;12.070;2022-08-14T11:14:01;2.55;;;0.90;;
49147;SDS011;41980;45.550;12.070;2022-08-14T11:20:08;2.13;;;0.80;;
49147;SDS011;41980;45.550;12.070;2022-08-14T11:26:12;3.22;;;1.10;;
49147;SDS011;41980;45.550;12.070;2022-08-14T11:32:19;1.80;;;0.98;;
49147;SDS011;41980;45.550;12.070;2022-08-14T11:38:21;2.65;;;0.80;;
49147;SDS011;41980;45.550;12.070;2022-08-14T11:44:23;2.83;;;0.90;;
49147;SDS011;41980;45.550;12.070;2022-08-14T11:50:27;2.20;;;0.88;;
49147;SDS011;41980;45.550;12.070;2022-08-14T11:56:34;2.03;;;0.95;;
49147;SDS011;41980;45.550;12.070;2022-08-14T12:02:48;2.67;;;0.70;;
49147;SDS011;41980;45.550;12.070;2022-08-14T12:08:54;2.28;;;0.98;;
49147;SDS011;41980;45.550;12.070;2022-08-14T12:14:57;1.92;;;0.70;;
49147;SDS011;41980;45.550;12.070;2022-08-14T12:27:10;1.20;;;0.50;;
49147;SDS011;41980;45.550;12.070;2022-08-14T12:39:25;1.52;;;0.70;;
49147;SDS011;41980;45.550;12.070;2022-08-14T12:45:28;1.13;;;0.60;;
49147;SDS011;41980;45.550;12.070;2022-08-14T12:51:34;2.13;;;0.80;;
49147;SDS011;41980;45.550;12.070;2022-08-14T12:57:38;2.55;;;1.00;;
49147;SDS011;41980;45.550;12.070;2022-08-14T13:03:43;1.80;;;0.80;;
49147;SDS011;41980;45.550;12.070;2022-08-14T13:09:46;2.78;;;0.88;;
49147;SDS011;41980;45.550;12.070;2022-08-14T13:21:58;3.15;;;0.90;;
49147;SDS011;41980;45.550;12.070;2022-08-14T13:28:00;2.72;;;0.93;;
49147;SDS011;41980;45.550;12.070;2022-08-14T13:34:03;1.58;;;0.70;;
49147;SDS011;41980;45.550;12.070;2022-08-14T13:40:07;1.80;;;0.80;;
49147;SDS011;41980;45.550;12.070;2022-08-14T13:46:11;1.50;;;0.80;;
49147;SDS011;41980;45.550;12.070;2022-08-14T13:52:17;2.53;;;1.10;;
49147;SDS011;41980;45.550;12.070;2022-08-14T13:58:21;6.75;;;0.90;;
49147;SDS011;41980;45.550;12.070;2022-08-14T14:04:25;1.63;;;0.95;;
49147;SDS011;41980;45.550;12.070;2022-08-14T14:10:33;2.67;;;0.80;;
49147;SDS011;41980;45.550;12.070;2022-08-14T14:16:38;1.60;;;0.70;;
49147;SDS011;41980;45.550;12.070;2022-08-14T14:22:44;1.45;;;0.80;;
49147;SDS011;41980;45.550;12.070;2022-08-14T14:28:48;1.33;;;0.60;;
49147;SDS011;41980;45.550;12.070;2022-08-14T14:34:54;1.25;;;0.55;;
49147;SDS011;41980;45.550;12.070;2022-08-14T14:41:02;1.98;;;0.93;;
49147;SDS011;41980;45.550;12.070;2022-08-14T14:53:12;1.33;;;0.60;;
49147;SDS011;41980;45.550;12.070;2022-08-14T14:59:15;1.10;;;0.52;;
49147;SDS011;41980;45.550;12.070;2022-08-14T15:05:18;2.53;;;0.60;;
49147;SDS011;41980;45.550;12.070;2022-08-14T15:11:24;1.75;;;0.80;;
49147;SDS011;41980;45.550;12.070;2022-08-14T15:17:27;1.58;;;0.85;;
49147;SDS011;41980;45.550;12.070;2022-08-14T15:23:36;1.30;;;0.63;;
49147;SDS011;41980;45.550;12.070;2022-08-14T15:29:40;1.65;;;0.93;;
49147;SDS011;41980;45.550;12.070;2022-08-14T15:35:42;2.65;;;1.00;;
49147;SDS011;41980;45.550;12.070;2022-08-14T15:41:45;1.90;;;0.98;;
49147;SDS011;41980;45.550;12.070;2022-08-14T15:47:48;3.60;;;1.10;;
49147;SDS011;41980;45.550;12.070;2022-08-14T15:53:51;2.63;;;1.00;;
49147;SDS011;41980;45.550;12.070;2022-08-14T15:59:55;2.30;;;1.50;;
49147;SDS011;41980;45.550;12.070;2022-08-14T16:06:01;1.70;;;1.00;;
49147;SDS011;41980;45.550;12.070;2022-08-14T16:12:05;2.65;;;0.88;;
49147;SDS011;41980;45.550;12.070;2022-08-14T16:18:10;3.95;;;1.10;;
49147;SDS011;41980;45.550;12.070;2022-08-14T16:24:16;2.33;;;1.17;;
49147;SDS011;41980;45.550;12.070;2022-08-14T16:30:19;2.03;;;1.00;;
49147;SDS011;41980;45.550;12.070;2022-08-14T16:36:22;2.15;;;1.10;;
49147;SDS011;41980;45.550;12.070;2022-08-14T16:42:29;3.05;;;1.00;;
49147;SDS011;41980;45.550;12.070;2022-08-14T16:48:34;2.70;;;1.05;;
49147;SDS011;41980;45.550;12.070;2022-08-14T16:54:36;2.05;;;0.90;;
49147;SDS011;41980;45.550;12.070;2022-08-14T17:00:38;2.42;;;1.48;;
49147;SDS011;41980;45.550;12.070;2022-08-14T17:12:49;1.42;;;0.80;;
49147;SDS011;41980;45.550;12.070;2022-08-14T17:18:53;3.40;;;1.05;;
49147;SDS011;41980;45.550;12.070;2022-08-14T17:24:58;2.45;;;1.20;;
49147;SDS011;41980;45.550;12.070;2022-08-14T17:31:02;2.28;;;1.10;;
49147;SDS011;41980;45.550;12.070;2022-08-14T17:37:04;3.25;;;1.10;;
49147;SDS011;41980;45.550;12.070;2022-08-14T17:43:07;2.10;;;1.10;;
49147;SDS011;41980;45.550;12.070;2022-08-14T17:49:11;2.08;;;1.10;;
49147;SDS011;41980;45.550;12.070;2022-08-14T17:55:14;1.90;;;1.08;;
49147;SDS011;41980;45.550;12.070;2022-08-14T18:01:16;1.88;;;1.02;;
49147;SDS011;41980;45.550;12.070;2022-08-14T18:07:20;2.15;;;1.10;;
49147;SDS011;41980;45.550;12.070;2022-08-14T18:13:23;1.70;;;1.00;;
49147;SDS011;41980;45.550;12.070;2022-08-14T18:19:30;1.95;;;0.98;;
49147;SDS011;41980;45.550;12.070;2022-08-14T18:25:38;2.40;;;1.20;;
49147;SDS011;41980;45.550;12.070;2022-08-14T18:31:47;2.00;;;1.10;;
49147;SDS011;41980;45.550;12.070;2022-08-14T18:37:50;2.28;;;1.20;;
49147;SDS011;41980;45.550;12.070;2022-08-14T18:44:12;2.10;;;0.82;;
49147;SDS011;41980;45.550;12.070;2022-08-14T19:08:35;1.85;;;1.00;;
49147;SDS011;41980;45.550;12.070;2022-08-14T19:14:41;1.83;;;0.80;;
49147;SDS011;41980;45.550;12.070;2022-08-14T19:20:49;2.30;;;1.00;;
49147;SDS011;41980;45.550;12.070;2022-08-14T19:27:12;1.58;;;0.90;;
49147;SDS011;41980;45.550;12.070;2022-08-14T19:45:35;2.25;;;1.30;;
49147;SDS011;41980;45.550;12.070;2022-08-14T19:51:39;2.35;;;1.50;;
49147;SDS011;41980;45.550;12.070;2022-08-14T19:57:44;2.40;;;1.35;;
49147;SDS011;41980;45.550;12.070;2022-08-14T20:03:47;1.90;;;1.20;;
49147;SDS011;41980;45.550;12.070;2022-08-14T20:09:51;2.53;;;1.55;;
49147;SDS011;41980;45.550;12.070;2022-08-14T20:15:54;2.25;;;1.10;;
49147;SDS011;41980;45.550;12.070;2022-08-14T20:21:58;2.42;;;1.25;;
49147;SDS011;41980;45.550;12.070;2022-08-14T20:34:14;3.03;;;1.08;;
49147;SDS011;41980;45.550;12.070;2022-08-14T20:40:18;2.78;;;1.25;;
49147;SDS011;41980;45.550;12.070;2022-08-14T20:46:26;2.03;;;1.10;;
49147;SDS011;41980;45.550;12.070;2022-08-14T20:52:30;2.20;;;1.45;;
49147;SDS011;41980;45.550;12.070;2022-08-14T20:58:36;2.70;;;1.00;;
49147;SDS011;41980;45.550;12.070;2022-08-14T21:04:50;6.20;;;1.85;;
49147;SDS011;41980;45.550;12.070;2022-08-14T21:10:54;2.58;;;1.52;;
49147;SDS011;41980;45.550;12.070;2022-08-14T21:16:56;1.48;;;0.98;;
49147;SDS011;41980;45.550;12.070;2022-08-14T21:22:58;2.17;;;1.50;;
49147;SDS011;41980;45.550;12.070;2022-08-14T21:29:01;1.63;;;0.93;;
49147;SDS011;41980;45.550;12.070;2022-08-14T21:35:03;3.38;;;1.30;;
49147;SDS011;41980;45.550;12.070;2022-08-14T21:41:09;2.45;;;1.40;;
49147;SDS011;41980;45.550;12.070;2022-08-14T21:47:17;2.53;;;1.38;;
49147;SDS011;41980;45.550;12.070;2022-08-14T21:53:20;2.97;;;1.20;;
49147;SDS011;41980;45.550;12.070;2022-08-14T21:59:28;2.88;;;1.20;;
49147;SDS011;41980;45.550;12.070;2022-08-14T22:05:32;1.98;;;1.20;;
49147;SDS011;41980;45.550;12.070;2022-08-14T22:11:34;1.63;;;1.10;;
49147;SDS011;41980;45.550;12.070;2022-08-14T22:17:37;1.88;;;1.10;;
49147;SDS011;41980;45.550;12.070;2022-08-14T22:23:41;3.30;;;1.42;;
49147;SDS011;41980;45.550;12.070;2022-08-14T22:29:44;1.83;;;0.98;;
49147;SDS011;41980;45.550;12.070;2022-08-14T22:35:46;2.22;;;1.33;;
49147;SDS011;41980;45.550;12.070;2022-08-14T22:41:48;2.78;;;1.60;;
49147;SDS011;41980;45.550;12.070;2022-08-14T22:47:52;2.65;;;1.70;;
49147;SDS011;41980;45.550;12.070;2022-08-14T22:53:55;2.70;;;1.80;;
49147;SDS011;41980;45.550;12.070;2022-08-14T22:59:59;2.30;;;1.75;;
49147;SDS011;41980;45.550;12.070;2022-08-14T23:06:01;2.88;;;1.55;;
49147;SDS011;41980;45.550;12.070;2022-08-14T23:12:05;3.67;;;2.22;;
49147;SDS011;41980;45.550;12.070;2022-08-14T23:18:10;2.60;;;1.90;;
49147;SDS011;41980;45.550;12.070;2022-08-14T23:24:13;2.25;;;1.50;;
49147;SDS011;41980;45.550;12.070;2022-08-14T23:30:19;2.17;;;1.38;;
49147;SDS011;41980;45.550;12.070;2022-08-14T23:36:24;3.22;;;1.38;;
49147;SDS011;41980;45.550;12.070;2022-08-14T23:42:28;2.22;;;1.30;;
49147;SDS011;41980;45.550;12.070;2022-08-14T23:48:30;3.15;;;1.70;;
49147;SDS011;41980;45.550;12.070;2022-08-14T23:54:32;4.57;;;2.15;;
